Airfield :
LOGIN :

Register | Disclaimer

   EN    FR    IT 

 










Legend :    VFR   Marginal VFR   IFR   Intensive IFR   Very Intensive IFR
Visi :
Ceiling :
>= 8 km
>= 3000ft
5 to 8 km
1000 to 3000 ft
1500m to 5 km
500 to 1000 ft
800 to 1500m
200 to 500 ft
< 800m
< 200 ft
Symbols :   Thunderstorms  Fog  Heavy snow  Heavy precipitations  Wind > 20 kt
SIGMETs :     Misc.  Thunderstorms  Icing  Turbulence  Mountain Waves  Volcanic Ashes






- Airport Elevation : 659 ft
- IATA code : LGG


EBLG - Liège

CURRENT METAR :
  • 161120Z 23016KT 9999 FEW023 19/13 Q1012 NOSIG

EXPIRED METARs :
  • 161050Z 22014KT 9999 -SHRA FEW012 SCT040 17/15 Q1012 NOSIG
  • 161020Z 21015KT 9999 FEW026 20/14 Q1012 NOSIG
  • 160950Z 21017KT 9999 FEW025 19/13 Q1012 NOSIG
  • 160920Z 22015KT 9999 FEW024 19/12 Q1012 NOSIG
  • 160850Z 22015KT 9999 FEW023 18/13 Q1012 NOSIG
  • 160820Z 21013KT 170V240 9999 FEW022 SCT033 18/13 Q1012 NOSIG
  • 160750Z 21016KT 9999 FEW022 SCT035 18/13 Q1012 NOSIG
  • 160720Z 22015KT 9999 FEW019 SCT035 17/13 Q1012 NOSIG
  • 160650Z 21016KT 170V230 9999 SCT018 BKN035 17/13 Q1012 NOSIG

TAF TAF EBLG
Valid from the 16 at 12:00 until the 17 at 18:00 UTC


161110Z 1612/1718 23012KT 9999 FEW025TCU
PROB40
TEMPO 1612/1618 23015G25KT 4000 SHRA SCT012 SCT025CB
PROB30
TEMPO 1622/1624 BKN014
PROB40
TEMPO 1702/1707 BKN007



MET'MAP, your aeronautical weather chart ! - Copyright ORBIFLY December 2007 - Disclaimer

ORBIFLY MET'MAP TEAM :

Programming & Development : Alexandra Zaïnal
Original concept : Baudouin d'Aumeries
Technical & hardware support : Manuel Goepfert
Assistance : Marc-Olivier Méhu




SOURCES & CREDITS :

   NOAA